sensor_id;sensor_type;location;lat;lon;timestamp;pressure;altitude;pressure_sealevel;temperature;humidity
81641;BME280;74020;50.722;-1.944;2024-03-22T00:02:18;101841.77;;;9.77;100.00
81641;BME280;74020;50.722;-1.944;2024-03-22T00:04:43;101835.67;;;9.91;100.00
81641;BME280;74020;50.722;-1.944;2024-03-22T00:07:09;101834.92;;;9.81;100.00
81641;BME280;74020;50.722;-1.944;2024-03-22T00:09:34;101835.36;;;9.81;100.00
81641;BME280;74020;50.722;-1.944;2024-03-22T00:11:59;101831.25;;;9.86;100.00
81641;BME280;74020;50.722;-1.944;2024-03-22T00:14:25;101831.55;;;9.87;100.00
81641;BME280;74020;50.722;-1.944;2024-03-22T00:16:50;101830.12;;;9.88;100.00
81641;BME280;74020;50.722;-1.944;2024-03-22T00:19:15;101830.56;;;9.59;100.00
81641;BME280;74020;50.722;-1.944;2024-03-22T00:21:41;101834.24;;;9.88;100.00
81641;BME280;74020;50.722;-1.944;2024-03-22T00:24:06;101828.75;;;9.63;100.00
81641;BME280;74020;50.722;-1.944;2024-03-22T00:26:31;101828.02;;;9.73;100.00
81641;BME280;74020;50.722;-1.944;2024-03-22T00:28:57;101823.61;;;9.72;100.00
81641;BME280;74020;50.722;-1.944;2024-03-22T00:31:22;101813.55;;;9.57;100.00
81641;BME280;74020;50.722;-1.944;2024-03-22T00:33:47;101813.14;;;9.68;100.00
81641;BME280;74020;50.722;-1.944;2024-03-22T00:36:12;101805.42;;;9.57;100.00
81641;BME280;74020;50.722;-1.944;2024-03-22T00:38:38;101796.00;;;9.44;100.00
81641;BME280;74020;50.722;-1.944;2024-03-22T00:41:03;101799.90;;;9.55;100.00
81641;BME280;74020;50.722;-1.944;2024-03-22T00:43:28;101800.86;;;9.56;100.00
81641;BME280;74020;50.722;-1.944;2024-03-22T00:45:54;101791.62;;;9.46;100.00
81641;BME280;74020;50.722;-1.944;2024-03-22T00:48:19;101786.72;;;9.45;100.00
81641;BME280;74020;50.722;-1.944;2024-03-22T00:50:44;101781.11;;;9.44;100.00
81641;BME280;74020;50.722;-1.944;2024-03-22T00:53:10;101770.77;;;9.54;100.00
81641;BME280;74020;50.722;-1.944;2024-03-22T00:55:36;101774.33;;;9.70;100.00
81641;BME280;74020;50.722;-1.944;2024-03-22T00:58:01;101777.73;;;9.80;100.00
81641;BME280;74020;50.722;-1.944;2024-03-22T01:00:26;101776.64;;;9.78;100.00
81641;BME280;74020;50.722;-1.944;2024-03-22T01:02:52;101775.53;;;9.72;100.00
81641;BME280;74020;50.722;-1.944;2024-03-22T01:05:17;101772.84;;;9.69;100.00
81641;BME280;74020;50.722;-1.944;2024-03-22T01:07:42;101766.76;;;9.48;100.00
81641;BME280;74020;50.722;-1.944;2024-03-22T01:10:08;101763.42;;;9.57;100.00
81641;BME280;74020;50.722;-1.944;2024-03-22T01:12:33;101762.23;;;9.63;100.00
81641;BME280;74020;50.722;-1.944;2024-03-22T01:14:58;101755.27;;;9.45;100.00
81641;BME280;74020;50.722;-1.944;2024-03-22T01:17:24;101759.04;;;9.32;100.00
81641;BME280;74020;50.722;-1.944;2024-03-22T01:19:49;101751.81;;;9.31;100.00
81641;BME280;74020;50.722;-1.944;2024-03-22T01:22:17;101744.42;;;9.38;100.00
81641;BME280;74020;50.722;-1.944;2024-03-22T01:27:05;101746.49;;;9.23;100.00
81641;BME280;74020;50.722;-1.944;2024-03-22T01:29:30;101742.60;;;9.40;100.00
81641;BME280;74020;50.722;-1.944;2024-03-22T01:31:55;101742.97;;;9.39;100.00
81641;BME280;74020;50.722;-1.944;2024-03-22T01:34:21;101735.43;;;9.30;100.00
81641;BME280;74020;50.722;-1.944;2024-03-22T01:36:46;101731.62;;;9.49;100.00
81641;BME280;74020;50.722;-1.944;2024-03-22T01:39:11;101726.74;;;9.43;100.00
81641;BME280;74020;50.722;-1.944;2024-03-22T01:41:37;101722.07;;;9.61;100.00
81641;BME280;74020;50.722;-1.944;2024-03-22T01:44:02;101718.18;;;9.55;100.00
81641;BME280;74020;50.722;-1.944;2024-03-22T01:46:28;101716.35;;;9.70;100.00
81641;BME280;74020;50.722;-1.944;2024-03-22T01:48:53;101713.79;;;9.40;100.00
81641;BME280;74020;50.722;-1.944;2024-03-22T01:51:18;101703.33;;;9.46;100.00
81641;BME280;74020;50.722;-1.944;2024-03-22T01:53:44;101701.21;;;9.30;100.00
81641;BME280;74020;50.722;-1.944;2024-03-22T01:56:10;101699.11;;;9.37;100.00
81641;BME280;74020;50.722;-1.944;2024-03-22T01:58:35;101692.66;;;9.36;100.00
81641;BME280;74020;50.722;-1.944;2024-03-22T02:01:00;101681.67;;;9.24;100.00
81641;BME280;74020;50.722;-1.944;2024-03-22T02:03:25;101679.98;;;9.27;100.00
81641;BME280;74020;50.722;-1.944;2024-03-22T02:05:52;101679.54;;;9.43;100.00
81641;BME280;74020;50.722;-1.944;2024-03-22T02:08:16;101678.05;;;9.47;100.00
81641;BME280;74020;50.722;-1.944;2024-03-22T02:10:43;101674.14;;;9.45;100.00
81641;BME280;74020;50.722;-1.944;2024-03-22T02:13:07;101674.77;;;9.48;100.00
81641;BME280;74020;50.722;-1.944;2024-03-22T02:15:33;101675.17;;;9.57;100.00
81641;BME280;74020;50.722;-1.944;2024-03-22T02:17:58;101673.05;;;9.48;100.00
81641;BME280;74020;50.722;-1.944;2024-03-22T02:20:23;101672.65;;;9.48;100.00
81641;BME280;74020;50.722;-1.944;2024-03-22T02:22:49;101669.15;;;9.53;100.00
81641;BME280;74020;50.722;-1.944;2024-03-22T02:25:15;101666.22;;;9.63;100.00
81641;BME280;74020;50.722;-1.944;2024-03-22T02:27:40;101671.46;;;9.65;99.69
81641;BME280;74020;50.722;-1.944;2024-03-22T02:30:06;101670.00;;;9.49;100.00
81641;BME280;74020;50.722;-1.944;2024-03-22T02:32:31;101671.42;;;9.70;98.32
81641;BME280;74020;50.722;-1.944;2024-03-22T02:34:56;101666.59;;;9.70;97.53
81641;BME280;74020;50.722;-1.944;2024-03-22T02:37:21;101663.17;;;9.79;96.43
81641;BME280;74020;50.722;-1.944;2024-03-22T02:39:47;101664.06;;;9.68;95.79
81641;BME280;74020;50.722;-1.944;2024-03-22T02:42:12;101665.26;;;9.77;95.45
81641;BME280;74020;50.722;-1.944;2024-03-22T02:44:37;101666.26;;;9.74;95.48
81641;BME280;74020;50.722;-1.944;2024-03-22T02:47:03;101664.79;;;9.77;95.48
81641;BME280;74020;50.722;-1.944;2024-03-22T02:49:28;101665.26;;;9.91;95.67
81641;BME280;74020;50.722;-1.944;2024-03-22T02:51:54;101660.57;;;9.71;97.13
81641;BME280;74020;50.722;-1.944;2024-03-22T02:54:19;101653.24;;;9.63;98.43
81641;BME280;74020;50.722;-1.944;2024-03-22T02:56:44;101646.99;;;9.64;98.93
81641;BME280;74020;50.722;-1.944;2024-03-22T02:59:10;101636.77;;;9.63;98.80
81641;BME280;74020;50.722;-1.944;2024-03-22T03:01:35;101635.33;;;9.35;100.00
81641;BME280;74020;50.722;-1.944;2024-03-22T03:04:01;101632.85;;;9.49;100.00
81641;BME280;74020;50.722;-1.944;2024-03-22T03:06:26;101640.45;;;9.53;100.00
81641;BME280;74020;50.722;-1.944;2024-03-22T03:08:52;101632.70;;;9.55;100.00
81641;BME280;74020;50.722;-1.944;2024-03-22T03:11:17;101630.84;;;9.63;100.00
81641;BME280;74020;50.722;-1.944;2024-03-22T03:13:42;101636.77;;;9.62;100.00
81641;BME280;74020;50.722;-1.944;2024-03-22T03:16:08;101637.86;;;9.84;100.00
81641;BME280;74020;50.722;-1.944;2024-03-22T03:18:33;101640.70;;;9.95;100.00
81641;BME280;74020;50.722;-1.944;2024-03-22T03:20:59;101633.92;;;9.68;100.00
81641;BME280;74020;50.722;-1.944;2024-03-22T03:23:24;101635.38;;;9.75;100.00
81641;BME280;74020;50.722;-1.944;2024-03-22T03:25:49;101640.83;;;9.83;100.00
81641;BME280;74020;50.722;-1.944;2024-03-22T03:28:15;101639.54;;;9.70;100.00
81641;BME280;74020;50.722;-1.944;2024-03-22T03:30:40;101633.88;;;9.62;100.00
81641;BME280;74020;50.722;-1.944;2024-03-22T03:33:06;101626.04;;;9.62;100.00
81641;BME280;74020;50.722;-1.944;2024-03-22T03:35:31;101613.57;;;9.45;100.00
81641;BME280;74020;50.722;-1.944;2024-03-22T03:37:57;101613.77;;;9.57;100.00
81641;BME280;74020;50.722;-1.944;2024-03-22T03:40:22;101612.77;;;9.63;100.00
81641;BME280;74020;50.722;-1.944;2024-03-22T03:42:47;101614.69;;;9.78;100.00
81641;BME280;74020;50.722;-1.944;2024-03-22T03:45:13;101614.31;;;9.87;100.00
81641;BME280;74020;50.722;-1.944;2024-03-22T03:47:38;101609.49;;;9.82;100.00
81641;BME280;74020;50.722;-1.944;2024-03-22T03:50:03;101602.49;;;9.66;100.00
81641;BME280;74020;50.722;-1.944;2024-03-22T03:52:28;101599.55;;;9.82;100.00
81641;BME280;74020;50.722;-1.944;2024-03-22T03:54:54;101599.36;;;9.81;100.00
81641;BME280;74020;50.722;-1.944;2024-03-22T03:57:19;101604.79;;;9.92;100.00
81641;BME280;74020;50.722;-1.944;2024-03-22T03:59:45;101599.65;;;9.91;100.00
81641;BME280;74020;50.722;-1.944;2024-03-22T04:02:10;101596.32;;;9.91;100.00
81641;BME280;74020;50.722;-1.944;2024-03-22T04:04:35;101594.33;;;9.94;100.00
81641;BME280;74020;50.722;-1.944;2024-03-22T04:07:01;101590.73;;;10.01;100.00
81641;BME280;74020;50.722;-1.944;2024-03-22T04:09:26;101586.42;;;10.00;100.00
81641;BME280;74020;50.722;-1.944;2024-03-22T04:11:51;101582.34;;;10.08;100.00
81641;BME280;74020;50.722;-1.944;2024-03-22T04:14:17;101578.05;;;10.12;100.00
81641;BME280;74020;50.722;-1.944;2024-03-22T04:16:42;101579.06;;;10.12;100.00
81641;BME280;74020;50.722;-1.944;2024-03-22T04:19:07;101582.66;;;10.13;100.00
81641;BME280;74020;50.722;-1.944;2024-03-22T04:21:33;101581.41;;;10.37;100.00
81641;BME280;74020;50.722;-1.944;2024-03-22T04:23:58;101583.36;;;10.16;100.00
81641;BME280;74020;50.722;-1.944;2024-03-22T04:26:24;101584.00;;;10.04;100.00
81641;BME280;74020;50.722;-1.944;2024-03-22T04:28:50;101587.04;;;9.96;100.00
81641;BME280;74020;50.722;-1.944;2024-03-22T04:31:14;101589.61;;;9.80;100.00
81641;BME280;74020;50.722;-1.944;2024-03-22T04:33:40;101585.60;;;10.05;100.00
81641;BME280;74020;50.722;-1.944;2024-03-22T04:36:06;101584.96;;;10.07;100.00
81641;BME280;74020;50.722;-1.944;2024-03-22T04:38:31;101579.70;;;9.90;100.00
81641;BME280;74020;50.722;-1.944;2024-03-22T04:40:56;101581.28;;;10.03;100.00
81641;BME280;74020;50.722;-1.944;2024-03-22T04:43:22;101577.67;;;9.89;100.00
81641;BME280;74020;50.722;-1.944;2024-03-22T04:45:48;101580.27;;;10.11;100.00
81641;BME280;74020;50.722;-1.944;2024-03-22T04:48:13;101588.42;;;10.08;100.00
81641;BME280;74020;50.722;-1.944;2024-03-22T04:50:38;101580.39;;;9.88;100.00
81641;BME280;74020;50.722;-1.944;2024-03-22T04:53:03;101579.07;;;10.08;100.00
81641;BME280;74020;50.722;-1.944;2024-03-22T04:55:28;101577.28;;;10.10;100.00
81641;BME280;74020;50.722;-1.944;2024-03-22T04:57:54;101574.87;;;10.19;100.00
81641;BME280;74020;50.722;-1.944;2024-03-22T05:00:19;101576.99;;;10.15;100.00
81641;BME280;74020;50.722;-1.944;2024-03-22T05:02:44;101572.45;;;10.16;100.00
81641;BME280;74020;50.722;-1.944;2024-03-22T05:05:10;101571.27;;;9.99;100.00
81641;BME280;74020;50.722;-1.944;2024-03-22T05:07:35;101569.46;;;9.94;100.00
81641;BME280;74020;50.722;-1.944;2024-03-22T05:10:00;101566.22;;;10.09;100.00
81641;BME280;74020;50.722;-1.944;2024-03-22T05:12:26;101570.16;;;9.91;100.00
81641;BME280;74020;50.722;-1.944;2024-03-22T05:14:51;101565.49;;;9.88;100.00
81641;BME280;74020;50.722;-1.944;2024-03-22T05:17:16;101564.90;;;10.06;100.00
81641;BME280;74020;50.722;-1.944;2024-03-22T05:19:41;101563.51;;;10.03;100.00
81641;BME280;74020;50.722;-1.944;2024-03-22T05:22:07;101564.83;;;10.10;100.00
81641;BME280;74020;50.722;-1.944;2024-03-22T05:24:32;101563.96;;;9.97;100.00
81641;BME280;74020;50.722;-1.944;2024-03-22T05:26:58;101567.77;;;10.04;100.00
81641;BME280;74020;50.722;-1.944;2024-03-22T05:29:23;101565.19;;;10.24;100.00
81641;BME280;74020;50.722;-1.944;2024-03-22T05:31:50;101564.81;;;10.29;100.00
81641;BME280;74020;50.722;-1.944;2024-03-22T05:34:14;101564.64;;;10.09;100.00
81641;BME280;74020;50.722;-1.944;2024-03-22T05:36:39;101558.38;;;9.98;100.00
81641;BME280;74020;50.722;-1.944;2024-03-22T05:39:05;101559.21;;;10.12;100.00
81641;BME280;74020;50.722;-1.944;2024-03-22T05:41:30;101553.35;;;10.08;100.00
81641;BME280;74020;50.722;-1.944;2024-03-22T05:43:56;101548.40;;;10.14;100.00
81641;BME280;74020;50.722;-1.944;2024-03-22T05:46:21;101546.17;;;10.11;100.00
81641;BME280;74020;50.722;-1.944;2024-03-22T05:48:46;101543.02;;;10.28;100.00
81641;BME280;74020;50.722;-1.944;2024-03-22T05:51:11;101542.23;;;10.16;100.00
81641;BME280;74020;50.722;-1.944;2024-03-22T05:53:37;101535.75;;;10.29;100.00
81641;BME280;74020;50.722;-1.944;2024-03-22T05:56:02;101536.51;;;10.17;100.00
81641;BME280;74020;50.722;-1.944;2024-03-22T05:58:27;101531.86;;;10.04;100.00
81641;BME280;74020;50.722;-1.944;2024-03-22T06:00:53;101532.97;;;9.96;100.00
81641;BME280;74020;50.722;-1.944;2024-03-22T06:03:18;101533.47;;;10.01;100.00
81641;BME280;74020;50.722;-1.944;2024-03-22T06:05:43;101529.37;;;10.13;100.00
81641;BME280;74020;50.722;-1.944;2024-03-22T06:08:10;101524.93;;;10.07;100.00
81641;BME280;74020;50.722;-1.944;2024-03-22T06:10:34;101518.75;;;10.27;100.00
81641;BME280;74020;50.722;-1.944;2024-03-22T06:12:59;101516.62;;;10.06;100.00
81641;BME280;74020;50.722;-1.944;2024-03-22T06:15:25;101515.41;;;9.97;100.00
81641;BME280;74020;50.722;-1.944;2024-03-22T06:17:50;101510.56;;;10.11;100.00
81641;BME280;74020;50.722;-1.944;2024-03-22T06:20:16;101502.03;;;10.22;100.00
81641;BME280;74020;50.722;-1.944;2024-03-22T06:22:52;101497.93;;;10.27;100.00
81641;BME280;74020;50.722;-1.944;2024-03-22T06:25:06;101500.61;;;10.17;100.00
81641;BME280;74020;50.722;-1.944;2024-03-22T06:27:32;101496.46;;;10.26;100.00
81641;BME280;74020;50.722;-1.944;2024-03-22T06:29:57;101497.14;;;10.43;100.00
81641;BME280;74020;50.722;-1.944;2024-03-22T06:32:23;101492.38;;;10.45;100.00
81641;BME280;74020;50.722;-1.944;2024-03-22T06:34:48;101488.74;;;10.44;100.00
81641;BME280;74020;50.722;-1.944;2024-03-22T06:37:13;101486.92;;;10.29;100.00
81641;BME280;74020;50.722;-1.944;2024-03-22T06:39:39;101487.01;;;10.33;100.00
81641;BME280;74020;50.722;-1.944;2024-03-22T06:42:04;101481.37;;;10.38;100.00
81641;BME280;74020;50.722;-1.944;2024-03-22T06:44:29;101482.80;;;10.33;100.00
81641;BME280;74020;50.722;-1.944;2024-03-22T06:46:54;101483.29;;;10.33;100.00
81641;BME280;74020;50.722;-1.944;2024-03-22T06:49:20;101474.27;;;10.39;100.00
81641;BME280;74020;50.722;-1.944;2024-03-22T06:51:45;101477.87;;;10.41;100.00
81641;BME280;74020;50.722;-1.944;2024-03-22T06:54:11;101479.15;;;10.52;100.00
81641;BME280;74020;50.722;-1.944;2024-03-22T06:56:36;101485.51;;;10.58;100.00
81641;BME280;74020;50.722;-1.944;2024-03-22T06:59:01;101488.06;;;10.50;100.00
81641;BME280;74020;50.722;-1.944;2024-03-22T07:01:26;101487.03;;;10.35;100.00
81641;BME280;74020;50.722;-1.944;2024-03-22T07:03:52;101483.08;;;10.39;100.00
81641;BME280;74020;50.722;-1.944;2024-03-22T07:06:17;101481.96;;;10.49;100.00
81641;BME280;74020;50.722;-1.944;2024-03-22T07:08:42;101482.53;;;10.55;100.00
81641;BME280;74020;50.722;-1.944;2024-03-22T07:11:08;101486.20;;;10.70;100.00
81641;BME280;74020;50.722;-1.944;2024-03-22T07:13:33;101487.29;;;10.52;100.00
81641;BME280;74020;50.722;-1.944;2024-03-22T07:15:58;101483.83;;;10.49;100.00
81641;BME280;74020;50.722;-1.944;2024-03-22T07:18:24;101483.47;;;10.61;100.00
81641;BME280;74020;50.722;-1.944;2024-03-22T07:20:49;101487.54;;;10.67;100.00
81641;BME280;74020;50.722;-1.944;2024-03-22T07:23:15;101491.77;;;10.73;100.00
81641;BME280;74020;50.722;-1.944;2024-03-22T07:25:40;101492.17;;;10.70;100.00
81641;BME280;74020;50.722;-1.944;2024-03-22T07:28:05;101495.26;;;10.78;100.00
81641;BME280;74020;50.722;-1.944;2024-03-22T07:30:31;101496.86;;;10.69;100.00
81641;BME280;74020;50.722;-1.944;2024-03-22T07:32:56;101503.27;;;10.70;100.00
81641;BME280;74020;50.722;-1.944;2024-03-22T07:35:22;101499.27;;;10.70;100.00
81641;BME280;74020;50.722;-1.944;2024-03-22T07:37:47;101502.67;;;10.82;100.00
81641;BME280;74020;50.722;-1.944;2024-03-22T07:40:13;101504.66;;;10.79;100.00
81641;BME280;74020;50.722;-1.944;2024-03-22T07:42:38;101499.43;;;10.74;100.00
81641;BME280;74020;50.722;-1.944;2024-03-22T07:45:03;101498.63;;;10.74;100.00
81641;BME280;74020;50.722;-1.944;2024-03-22T07:47:28;101497.81;;;10.86;100.00
81641;BME280;74020;50.722;-1.944;2024-03-22T07:49:54;101498.04;;;10.89;100.00
81641;BME280;74020;50.722;-1.944;2024-03-22T07:52:19;101499.03;;;10.92;100.00
81641;BME280;74020;50.722;-1.944;2024-03-22T07:54:44;101499.02;;;10.72;100.00
81641;BME280;74020;50.722;-1.944;2024-03-22T07:57:10;101503.44;;;10.92;100.00
81641;BME280;74020;50.722;-1.944;2024-03-22T07:59:36;101503.67;;;10.74;100.00
81641;BME280;74020;50.722;-1.944;2024-03-22T08:02:02;101508.19;;;10.81;100.00
81641;BME280;74020;50.722;-1.944;2024-03-22T08:04:27;101511.43;;;10.86;100.00
81641;BME280;74020;50.722;-1.944;2024-03-22T08:06:52;101508.82;;;10.69;100.00
81641;BME280;74020;50.722;-1.944;2024-03-22T08:09:21;101508.84;;;10.87;100.00
81641;BME280;74020;50.722;-1.944;2024-03-22T08:11:43;101507.72;;;10.87;100.00
81641;BME280;74020;50.722;-1.944;2024-03-22T08:14:08;101508.46;;;10.94;100.00
81641;BME280;74020;50.722;-1.944;2024-03-22T08:16:34;101510.11;;;10.98;100.00
81641;BME280;74020;50.722;-1.944;2024-03-22T08:19:00;101505.90;;;11.01;100.00
81641;BME280;74020;50.722;-1.944;2024-03-22T08:21:25;101505.17;;;11.09;100.00
81641;BME280;74020;50.722;-1.944;2024-03-22T08:23:51;101502.45;;;11.07;100.00
81641;BME280;74020;50.722;-1.944;2024-03-22T08:26:16;101502.75;;;11.18;100.00
81641;BME280;74020;50.722;-1.944;2024-03-22T08:28:41;101500.86;;;11.18;100.00
81641;BME280;74020;50.722;-1.944;2024-03-22T08:31:07;101505.03;;;11.22;100.00
81641;BME280;74020;50.722;-1.944;2024-03-22T08:33:32;101504.45;;;11.20;100.00
81641;BME280;74020;50.722;-1.944;2024-03-22T08:35:57;101506.72;;;11.17;100.00
81641;BME280;74020;50.722;-1.944;2024-03-22T08:38:23;101510.85;;;11.33;100.00
81641;BME280;74020;50.722;-1.944;2024-03-22T08:40:49;101505.15;;;11.27;100.00
81641;BME280;74020;50.722;-1.944;2024-03-22T08:43:14;101500.86;;;11.50;100.00
81641;BME280;74020;50.722;-1.944;2024-03-22T08:45:39;101501.47;;;11.47;100.00
81641;BME280;74020;50.722;-1.944;2024-03-22T08:48:05;101503.62;;;11.42;100.00
81641;BME280;74020;50.722;-1.944;2024-03-22T08:50:30;101500.01;;;11.38;100.00
81641;BME280;74020;50.722;-1.944;2024-03-22T08:52:55;101499.62;;;11.55;100.00
81641;BME280;74020;50.722;-1.944;2024-03-22T08:55:21;101497.41;;;11.52;100.00
81641;BME280;74020;50.722;-1.944;2024-03-22T08:57:46;101494.31;;;11.42;100.00
81641;BME280;74020;50.722;-1.944;2024-03-22T09:00:13;101486.06;;;11.60;100.00
81641;BME280;74020;50.722;-1.944;2024-03-22T09:02:37;101477.27;;;11.85;100.00
81641;BME280;74020;50.722;-1.944;2024-03-22T09:05:03;101480.01;;;12.05;100.00
81641;BME280;74020;50.722;-1.944;2024-03-22T09:07:28;101482.07;;;12.12;100.00
81641;BME280;74020;50.722;-1.944;2024-03-22T09:09:53;101480.33;;;12.29;100.00
81641;BME280;74020;50.722;-1.944;2024-03-22T09:12:19;101472.29;;;12.23;99.07
81641;BME280;74020;50.722;-1.944;2024-03-22T09:14:44;101469.62;;;12.23;97.69
81641;BME280;74020;50.722;-1.944;2024-03-22T09:17:09;101466.10;;;12.44;96.67
81641;BME280;74020;50.722;-1.944;2024-03-22T09:19:34;101469.73;;;12.41;95.70
81641;BME280;74020;50.722;-1.944;2024-03-22T09:21:59;101471.06;;;12.28;97.61
81641;BME280;74020;50.722;-1.944;2024-03-22T09:24:25;101464.30;;;12.17;96.63
81641;BME280;74020;50.722;-1.944;2024-03-22T09:26:50;101467.32;;;12.41;94.93
81641;BME280;74020;50.722;-1.944;2024-03-22T09:29:15;101468.66;;;12.45;93.73
81641;BME280;74020;50.722;-1.944;2024-03-22T09:31:41;101470.97;;;12.66;92.53
81641;BME280;74020;50.722;-1.944;2024-03-22T09:34:06;101467.59;;;12.42;93.39
81641;BME280;74020;50.722;-1.944;2024-03-22T09:36:31;101469.57;;;12.38;95.06
81641;BME280;74020;50.722;-1.944;2024-03-22T09:38:57;101467.48;;;12.59;91.40
81641;BME280;74020;50.722;-1.944;2024-03-22T09:41:24;101471.40;;;12.74;91.37
81641;BME280;74020;50.722;-1.944;2024-03-22T09:43:49;101463.32;;;12.81;87.75
81641;BME280;74020;50.722;-1.944;2024-03-22T09:46:13;101462.04;;;12.91;87.72
81641;BME280;74020;50.722;-1.944;2024-03-22T09:48:38;101471.28;;;13.10;87.28
81641;BME280;74020;50.722;-1.944;2024-03-22T09:51:03;101474.91;;;12.98;90.07
81641;BME280;74020;50.722;-1.944;2024-03-22T09:53:30;101468.32;;;13.16;86.58
81641;BME280;74020;50.722;-1.944;2024-03-22T09:55:54;101474.18;;;13.14;87.43
81641;BME280;74020;50.722;-1.944;2024-03-22T09:58:19;101470.60;;;13.23;85.76
81641;BME280;74020;50.722;-1.944;2024-03-22T10:00:44;101472.27;;;13.27;83.47
81641;BME280;74020;50.722;-1.944;2024-03-22T10:03:10;101474.77;;;13.37;81.26
81641;BME280;74020;50.722;-1.944;2024-03-22T10:05:35;101478.20;;;13.20;77.70
81641;BME280;74020;50.722;-1.944;2024-03-22T10:08:00;101479.49;;;13.06;76.11
81641;BME280;74020;50.722;-1.944;2024-03-22T10:10:25;101481.54;;;12.89;71.40
81641;BME280;74020;50.722;-1.944;2024-03-22T10:12:51;101492.65;;;12.82;71.71
81641;BME280;74020;50.722;-1.944;2024-03-22T10:15:17;101488.10;;;12.26;75.90
81641;BME280;74020;50.722;-1.944;2024-03-22T10:17:42;101496.02;;;12.21;75.40
81641;BME280;74020;50.722;-1.944;2024-03-22T10:20:07;101489.31;;;12.31;75.83
81641;BME280;74020;50.722;-1.944;2024-03-22T10:22:32;101493.34;;;12.31;76.18
81641;BME280;74020;50.722;-1.944;2024-03-22T10:24:58;101492.94;;;12.31;76.01
81641;BME280;74020;50.722;-1.944;2024-03-22T10:27:23;101491.84;;;12.36;75.83
81641;BME280;74020;50.722;-1.944;2024-03-22T10:29:49;101492.51;;;12.32;75.79
81641;BME280;74020;50.722;-1.944;2024-03-22T10:32:16;101491.04;;;12.04;76.38
81641;BME280;74020;50.722;-1.944;2024-03-22T10:34:40;101491.51;;;12.14;76.78
81641;BME280;74020;50.722;-1.944;2024-03-22T10:37:05;101489.37;;;12.08;77.38
81641;BME280;74020;50.722;-1.944;2024-03-22T10:39:30;101496.51;;;12.06;77.60
81641;BME280;74020;50.722;-1.944;2024-03-22T10:41:55;101483.88;;;12.06;77.89
81641;BME280;74020;50.722;-1.944;2024-03-22T10:44:21;101485.95;;;12.09;77.94
81641;BME280;74020;50.722;-1.944;2024-03-22T10:46:47;101488.58;;;12.04;77.50
81641;BME280;74020;50.722;-1.944;2024-03-22T10:49:15;101489.72;;;12.11;77.63
81641;BME280;74020;50.722;-1.944;2024-03-22T10:51:37;101484.86;;;12.13;78.03
81641;BME280;74020;50.722;-1.944;2024-03-22T10:54:02;101479.81;;;11.98;77.21
81641;BME280;74020;50.722;-1.944;2024-03-22T10:56:27;101479.75;;;12.16;76.94
81641;BME280;74020;50.722;-1.944;2024-03-22T10:58:52;101477.92;;;12.19;76.07
81641;BME280;74020;50.722;-1.944;2024-03-22T11:01:23;101473.97;;;12.04;77.19
81641;BME280;74020;50.722;-1.944;2024-03-22T11:03:43;101479.99;;;12.07;76.84
81641;BME280;74020;50.722;-1.944;2024-03-22T11:06:08;101483.28;;;12.13;78.10
81641;BME280;74020;50.722;-1.944;2024-03-22T11:08:33;101492.68;;;12.13;76.71
81641;BME280;74020;50.722;-1.944;2024-03-22T11:13:24;101495.93;;;12.15;75.89
81641;BME280;74020;50.722;-1.944;2024-03-22T11:15:50;101492.31;;;11.97;76.03
81641;BME280;74020;50.722;-1.944;2024-03-22T11:18:14;101502.64;;;11.93;76.00
81641;BME280;74020;50.722;-1.944;2024-03-22T11:20:40;101502.65;;;11.91;76.35
81641;BME280;74020;50.722;-1.944;2024-03-22T11:23:05;101511.36;;;11.80;76.86
81641;BME280;74020;50.722;-1.944;2024-03-22T11:25:33;101506.87;;;11.78;76.68
81641;BME280;74020;50.722;-1.944;2024-03-22T11:27:57;101507.80;;;11.68;77.21
81641;BME280;74020;50.722;-1.944;2024-03-22T11:30:24;101515.98;;;11.74;77.58
81641;BME280;74020;50.722;-1.944;2024-03-22T11:32:48;101514.15;;;11.60;78.29
81641;BME280;74020;50.722;-1.944;2024-03-22T11:35:13;101502.06;;;11.52;79.17
81641;BME280;74020;50.722;-1.944;2024-03-22T11:37:39;101508.09;;;11.46;79.41
81641;BME280;74020;50.722;-1.944;2024-03-22T11:40:03;101501.11;;;11.47;79.85
81641;BME280;74020;50.722;-1.944;2024-03-22T11:42:28;101502.00;;;11.50;80.51
81641;BME280;74020;50.722;-1.944;2024-03-22T11:44:53;101497.46;;;11.58;79.82
81641;BME280;74020;50.722;-1.944;2024-03-22T11:47:19;101494.56;;;11.65;80.47
81641;BME280;74020;50.722;-1.944;2024-03-22T11:49:44;101490.16;;;11.37;79.66
81641;BME280;74020;50.722;-1.944;2024-03-22T11:52:10;101481.02;;;11.29;81.16
81641;BME280;74020;50.722;-1.944;2024-03-22T11:54:35;101473.35;;;11.50;80.07
81641;BME280;74020;50.722;-1.944;2024-03-22T11:57:03;101469.59;;;11.38;79.92
81641;BME280;74020;50.722;-1.944;2024-03-22T11:59:26;101475.58;;;11.46;79.28
81641;BME280;74020;50.722;-1.944;2024-03-22T12:01:51;101476.81;;;11.43;80.20
81641;BME280;74020;50.722;-1.944;2024-03-22T12:04:16;101468.80;;;11.39;80.66
81641;BME280;74020;50.722;-1.944;2024-03-22T12:06:42;101468.28;;;11.53;81.35
81641;BME280;74020;50.722;-1.944;2024-03-22T12:09:07;101465.43;;;11.45;80.49
81641;BME280;74020;50.722;-1.944;2024-03-22T12:11:32;101464.48;;;11.50;80.35
81641;BME280;74020;50.722;-1.944;2024-03-22T12:13:57;101462.05;;;11.38;79.45
81641;BME280;74020;50.722;-1.944;2024-03-22T12:16:23;101451.50;;;11.35;80.17
81641;BME280;74020;50.722;-1.944;2024-03-22T12:18:48;101463.11;;;11.30;79.26
81641;BME280;74020;50.722;-1.944;2024-03-22T12:21:13;101459.95;;;11.18;77.78
81641;BME280;74020;50.722;-1.944;2024-03-22T12:23:39;101456.81;;;11.26;76.99
81641;BME280;74020;50.722;-1.944;2024-03-22T12:26:04;101452.26;;;11.27;74.59
81641;BME280;74020;50.722;-1.944;2024-03-22T12:28:30;101446.78;;;11.28;71.21
81641;BME280;74020;50.722;-1.944;2024-03-22T12:30:55;101447.12;;;11.29;73.07
81641;BME280;74020;50.722;-1.944;2024-03-22T12:33:20;101443.07;;;11.36;74.58